createdAt,value
2023-05-19T00:01:53.318Z,72.30
2023-05-19T00:04:20.480Z,71.35
2023-05-19T00:06:51.044Z,69.75
2023-05-19T00:09:18.493Z,69.27
2023-05-19T00:11:45.587Z,68.72
2023-05-19T00:14:13.050Z,69.03
2023-05-19T00:16:40.282Z,68.43
2023-05-19T00:19:07.227Z,68.00
2023-05-19T00:21:34.197Z,67.70
2023-05-19T00:24:01.054Z,67.25
2023-05-19T00:26:28.008Z,72.43
2023-05-19T00:28:54.924Z,77.25
2023-05-19T00:31:21.975Z,78.64
2023-05-19T00:33:48.879Z,78.33
2023-05-19T00:36:15.856Z,80.33
2023-05-19T00:38:42.767Z,81.03
2023-05-19T00:41:09.681Z,79.95
2023-05-19T00:43:36.748Z,78.71
2023-05-19T00:46:04.117Z,77.37
2023-05-19T00:48:31.227Z,76.58
2023-05-19T00:50:59.844Z,76.12
2023-05-19T00:53:26.687Z,75.45
2023-05-19T00:55:53.701Z,76.58
2023-05-19T00:58:20.635Z,78.04
2023-05-19T01:00:47.584Z,79.89
2023-05-19T01:03:14.484Z,80.28
2023-05-19T01:05:42.717Z,80.34
2023-05-19T01:08:09.604Z,78.72
2023-05-19T01:10:36.672Z,77.61
2023-05-19T01:13:05.595Z,76.13
2023-05-19T01:15:54.336Z,74.75
2023-05-19T01:18:37.014Z,73.42
2023-05-19T01:21:27.133Z,73.06
2023-05-19T01:24:10.687Z,72.83
2023-05-19T01:27:05.927Z,72.42
2023-05-19T01:29:51.042Z,72.16
2023-05-19T01:32:21.206Z,71.68
2023-05-19T01:34:51.052Z,71.63
2023-05-19T01:37:20.597Z,71.81
2023-05-19T01:39:48.695Z,70.82
2023-05-19T01:42:16.423Z,71.19
2023-05-19T01:44:44.013Z,71.12
2023-05-19T01:47:11.021Z,70.38
2023-05-19T01:49:37.949Z,70.61
2023-05-19T01:52:05.128Z,72.75
2023-05-19T01:54:32.028Z,77.73
2023-05-19T01:57:23.632Z,80.18
2023-05-19T02:00:10.261Z,80.81
2023-05-19T02:02:56.078Z,79.90
2023-05-19T02:05:42.566Z,79.68
2023-05-19T02:08:30.890Z,77.81
2023-05-19T02:11:14.047Z,77.47
2023-05-19T02:13:44.379Z,76.59
2023-05-19T02:16:13.717Z,77.65
2023-05-19T02:18:40.967Z,79.60
2023-05-19T02:21:07.888Z,80.26
2023-05-19T02:23:34.698Z,81.06
2023-05-19T02:26:01.572Z,81.06
2023-05-19T02:28:28.531Z,79.12
2023-05-19T02:30:55.733Z,77.98
2023-05-19T02:33:22.537Z,76.61
2023-05-19T02:35:49.430Z,76.48
2023-05-19T02:38:16.296Z,77.53
2023-05-19T02:40:43.109Z,78.76
2023-05-19T02:43:10.095Z,79.76
2023-05-19T02:45:36.921Z,79.49
2023-05-19T02:48:03.994Z,77.64
2023-05-19T02:50:31.139Z,77.12
2023-05-19T02:52:58.204Z,76.23
2023-05-19T02:55:25.041Z,75.81
2023-05-19T02:57:51.990Z,75.39
2023-05-19T03:00:18.990Z,74.67
2023-05-19T03:02:46.015Z,77.60
2023-05-19T03:05:12.993Z,79.63
2023-05-19T03:07:39.889Z,81.93
2023-05-19T03:10:07.560Z,81.00
2023-05-19T03:12:34.607Z,79.75
2023-05-19T03:15:01.531Z,78.46
2023-05-19T03:17:28.492Z,77.19
2023-05-19T03:19:55.480Z,76.71
2023-05-19T03:22:22.341Z,75.73
2023-05-19T03:24:49.286Z,74.84
2023-05-19T03:27:16.296Z,74.09
2023-05-19T03:29:43.069Z,74.08
2023-05-19T03:32:09.917Z,73.41
2023-05-19T03:34:36.832Z,73.18
2023-05-19T03:37:03.742Z,73.35
2023-05-19T03:39:31.230Z,74.20
2023-05-19T03:41:58.241Z,76.16
2023-05-19T03:44:25.039Z,77.69
2023-05-19T03:46:51.831Z,79.68
2023-05-19T03:49:18.830Z,80.91
2023-05-19T03:51:45.714Z,81.59
2023-05-19T03:54:12.639Z,81.95
2023-05-19T03:56:40.393Z,83.14
2023-05-19T03:59:07.213Z,83.16
2023-05-19T04:01:34.266Z,81.88
2023-05-19T04:04:01.261Z,82.81
2023-05-19T04:06:28.202Z,82.57
2023-05-19T04:08:55.117Z,82.04
2023-05-19T04:11:22.075Z,81.93
2023-05-19T04:13:49.013Z,82.55
2023-05-19T04:16:16.122Z,82.45
2023-05-19T04:18:43.155Z,81.77
2023-05-19T04:21:10.166Z,80.77
2023-05-19T04:23:37.153Z,79.77
2023-05-19T04:26:04.363Z,79.39
2023-05-19T04:28:31.292Z,78.29
2023-05-19T04:30:58.167Z,75.92
2023-05-19T04:33:25.108Z,75.76
2023-05-19T04:35:52.043Z,76.10
2023-05-19T04:38:19.083Z,76.51
2023-05-19T04:40:46.001Z,75.90
2023-05-19T04:43:12.859Z,73.78
2023-05-19T04:45:39.748Z,74.26
2023-05-19T04:48:09.662Z,73.13
2023-05-19T04:50:36.574Z,75.03
2023-05-19T04:53:03.393Z,76.39
2023-05-19T04:55:30.436Z,77.11
2023-05-19T04:58:00.412Z,77.80
2023-05-19T05:00:27.343Z,78.42
2023-05-19T05:02:54.428Z,78.86
2023-05-19T05:05:21.308Z,78.73
2023-05-19T05:07:48.171Z,80.05
2023-05-19T05:10:15.496Z,78.73
2023-05-19T05:12:42.736Z,78.89
2023-05-19T05:15:10.345Z,78.23
2023-05-19T05:17:37.596Z,78.05
2023-05-19T05:20:05.031Z,78.31
2023-05-19T05:22:32.258Z,77.56
2023-05-19T05:24:59.635Z,77.59
2023-05-19T05:27:26.677Z,78.12
2023-05-19T05:29:56.030Z,77.23
2023-05-19T05:32:23.978Z,76.82
2023-05-19T05:34:51.166Z,76.50
2023-05-19T05:37:17.962Z,75.53
2023-05-19T05:39:44.921Z,73.73
2023-05-19T05:42:11.839Z,72.14
2023-05-19T05:44:38.678Z,70.95
2023-05-19T05:47:06.012Z,70.01
2023-05-19T05:49:33.134Z,68.00
2023-05-19T05:52:06.360Z,67.36
2023-05-19T05:54:34.414Z,66.67
2023-05-19T05:57:01.716Z,67.84
2023-05-19T05:59:30.640Z,69.50
2023-05-19T06:01:57.613Z,70.03
2023-05-19T06:04:24.494Z,70.86
2023-05-19T06:06:51.448Z,71.57
2023-05-19T06:09:18.683Z,71.73
2023-05-19T06:11:45.594Z,71.44
2023-05-19T06:14:12.448Z,70.89
2023-05-19T06:16:39.623Z,71.70
2023-05-19T06:19:06.685Z,72.40
2023-05-19T06:21:33.553Z,72.58
2023-05-19T06:24:00.566Z,73.08
2023-05-19T06:26:27.377Z,73.01
2023-05-19T06:28:54.396Z,72.86
2023-05-19T06:31:21.515Z,72.14
2023-05-19T06:33:50.743Z,73.26
2023-05-19T06:36:17.927Z,72.98
2023-05-19T06:38:44.830Z,73.16
2023-05-19T06:41:11.821Z,71.54
2023-05-19T06:43:38.799Z,71.29
2023-05-19T06:46:05.774Z,70.40
2023-05-19T06:48:32.618Z,69.70
2023-05-19T06:50:59.504Z,68.16
2023-05-19T06:53:26.486Z,68.55
2023-05-19T06:55:59.437Z,67.09
2023-05-19T06:58:27.434Z,68.26
2023-05-19T07:00:57.149Z,68.62
2023-05-19T07:03:24.170Z,66.95
2023-05-19T07:05:51.255Z,66.65
2023-05-19T07:08:18.062Z,66.70
2023-05-19T07:10:44.975Z,66.46
2023-05-19T07:13:11.896Z,66.97
2023-05-19T07:15:38.799Z,66.75
2023-05-19T07:18:05.924Z,67.71
2023-05-19T07:20:32.975Z,67.28
2023-05-19T07:22:59.961Z,67.60
2023-05-19T07:25:26.815Z,66.89
2023-05-19T07:27:54.005Z,66.12
2023-05-19T07:30:23.909Z,66.32
2023-05-19T07:32:50.852Z,67.93
2023-05-19T07:35:17.857Z,67.18
2023-05-19T07:37:44.782Z,65.56
2023-05-19T07:40:11.967Z,65.83
2023-05-19T07:42:39.090Z,65.81
2023-05-19T07:45:09.306Z,64.74
2023-05-19T07:47:36.237Z,65.34
2023-05-19T07:50:03.838Z,65.35
2023-05-19T07:52:30.805Z,64.12
2023-05-19T07:54:58.713Z,62.56
2023-05-19T07:57:25.898Z,61.83
2023-05-19T07:59:52.833Z,62.40
2023-05-19T08:02:19.739Z,61.80
2023-05-19T08:04:46.777Z,62.17
2023-05-19T08:07:13.755Z,61.86
2023-05-19T08:09:40.747Z,60.47
2023-05-19T08:12:07.824Z,61.60
2023-05-19T08:14:34.697Z,59.00
2023-05-19T08:17:01.557Z,58.38
2023-05-19T08:19:28.753Z,59.27
2023-05-19T08:21:55.610Z,60.59
2023-05-19T08:24:22.639Z,61.63
2023-05-19T08:26:49.518Z,61.45
2023-05-19T08:29:16.884Z,60.12
2023-05-19T08:31:44.111Z,59.10
2023-05-19T08:34:11.239Z,58.05
2023-05-19T08:36:38.097Z,56.70
2023-05-19T08:39:05.009Z,56.04
2023-05-19T08:41:32.396Z,54.58
2023-05-19T08:43:59.755Z,55.42
2023-05-19T08:46:27.202Z,56.45
2023-05-19T08:49:05.068Z,56.64
2023-05-19T08:51:39.495Z,56.02
2023-05-19T08:54:16.466Z,56.17
2023-05-19T08:56:44.730Z,55.61
2023-05-19T08:59:14.111Z,56.57
2023-05-19T09:01:46.224Z,56.21
2023-05-19T09:04:13.737Z,55.76
2023-05-19T09:06:41.265Z,56.02
2023-05-19T09:09:08.809Z,55.76
2023-05-19T09:11:35.735Z,55.47
2023-05-19T09:14:02.654Z,54.52
2023-05-19T09:16:30.440Z,54.65
2023-05-19T09:19:00.863Z,54.18
2023-05-19T09:21:29.402Z,55.31
2023-05-19T09:23:57.043Z,54.86
2023-05-19T09:26:24.075Z,55.11
2023-05-19T09:28:51.253Z,54.94
2023-05-19T09:31:18.136Z,54.45
2023-05-19T09:33:46.000Z,53.56
2023-05-19T09:36:13.981Z,54.90
2023-05-19T09:38:41.222Z,55.65
2023-05-19T09:41:08.400Z,54.89
2023-05-19T09:43:35.850Z,55.16
2023-05-19T09:46:07.942Z,55.36
2023-05-19T09:48:35.863Z,56.10
2023-05-19T09:51:04.046Z,55.42
2023-05-19T09:53:31.431Z,54.82
2023-05-19T09:55:58.637Z,56.54
2023-05-19T09:58:26.746Z,54.65
2023-05-19T10:00:54.374Z,55.08
2023-05-19T10:03:26.353Z,54.33
2023-05-19T10:05:54.119Z,53.20
2023-05-19T10:08:22.478Z,51.80
2023-05-19T10:10:49.704Z,51.14
2023-05-19T10:13:17.405Z,49.80
2023-05-19T10:15:57.210Z,49.82
2023-05-19T10:18:26.462Z,50.69
2023-05-19T10:20:54.449Z,49.17
2023-05-19T10:23:21.400Z,45.78
2023-05-19T10:25:50.696Z,48.72
2023-05-19T10:28:20.111Z,50.32
2023-05-19T10:30:50.960Z,50.49
2023-05-19T10:33:21.900Z,48.88
2023-05-19T10:36:02.627Z,48.92
2023-05-19T10:38:56.925Z,49.04
2023-05-19T10:41:56.016Z,48.07
2023-05-19T10:44:49.742Z,43.27
2023-05-19T10:47:26.838Z,42.97
2023-05-19T10:49:54.591Z,42.64
2023-05-19T10:52:24.521Z,42.32
2023-05-19T10:54:52.108Z,42.64
2023-05-19T10:57:21.119Z,42.77
2023-05-19T10:59:48.387Z,41.71
2023-05-19T11:02:41.445Z,43.41
2023-05-19T11:05:13.638Z,43.51
2023-05-19T11:08:09.382Z,44.78
2023-05-19T11:10:36.406Z,45.63
2023-05-19T11:13:06.557Z,44.05
2023-05-19T11:15:36.641Z,44.59
2023-05-19T11:18:04.945Z,42.14
2023-05-19T11:20:31.985Z,41.98
2023-05-19T11:23:07.105Z,42.47
2023-05-19T11:25:52.033Z,41.42
2023-05-19T11:28:21.473Z,41.31
2023-05-19T11:30:49.288Z,41.28
2023-05-19T11:33:16.356Z,41.42
2023-05-19T11:35:45.976Z,42.03
2023-05-19T11:38:14.242Z,44.66
2023-05-19T11:40:42.703Z,45.27
2023-05-19T11:43:09.699Z,45.17
2023-05-19T11:45:36.964Z,44.47
2023-05-19T11:48:04.231Z,44.02
2023-05-19T11:50:32.385Z,43.44
2023-05-19T11:53:03.065Z,41.77
2023-05-19T11:55:30.591Z,41.11
2023-05-19T11:58:03.893Z,42.16
2023-05-19T12:00:36.700Z,43.52
2023-05-19T12:03:03.848Z,42.30
2023-05-19T12:05:31.996Z,40.83
2023-05-19T12:08:00.853Z,40.46
2023-05-19T12:10:29.731Z,40.89
2023-05-19T12:12:56.930Z,41.78
2023-05-19T12:15:25.207Z,41.65
2023-05-19T12:17:57.788Z,43.01
2023-05-19T12:20:26.240Z,41.94
2023-05-19T12:22:55.418Z,41.87
2023-05-19T12:25:23.454Z,41.53
2023-05-19T12:27:50.488Z,42.91
2023-05-19T12:30:17.537Z,42.87
2023-05-19T12:32:46.412Z,43.71
2023-05-19T12:35:14.758Z,43.34
2023-05-19T12:37:42.404Z,42.16
2023-05-19T12:40:10.275Z,42.64
2023-05-19T12:42:37.288Z,45.35
2023-05-19T12:45:04.810Z,48.57
2023-05-19T12:47:34.065Z,49.62
2023-05-19T12:50:01.912Z,49.28
2023-05-19T12:52:29.927Z,51.39
2023-05-19T12:55:01.680Z,53.51
2023-05-19T12:57:29.004Z,54.78
2023-05-19T13:00:01.076Z,56.28
2023-05-19T13:02:28.099Z,57.12
2023-05-19T13:04:55.030Z,57.34
2023-05-19T13:07:21.920Z,59.75
2023-05-19T13:09:51.873Z,60.21
2023-05-19T13:12:19.221Z,60.91
2023-05-19T13:14:46.134Z,60.32
2023-05-19T13:17:13.070Z,61.07
2023-05-19T13:19:40.004Z,61.49
2023-05-19T13:22:06.972Z,60.78
2023-05-19T13:24:33.966Z,60.24
2023-05-19T13:27:00.846Z,59.38
2023-05-19T13:29:27.738Z,58.20
2023-05-19T13:31:54.680Z,56.76
2023-05-19T13:34:21.558Z,54.62
2023-05-19T13:36:48.502Z,54.02
2023-05-19T13:39:15.514Z,53.86
2023-05-19T13:41:42.406Z,52.24
2023-05-19T13:44:09.276Z,51.90
2023-05-19T13:46:44.587Z,49.79
2023-05-19T13:49:13.392Z,50.37
2023-05-19T13:51:46.342Z,50.64
2023-05-19T13:54:13.320Z,50.18
2023-05-19T13:56:40.174Z,50.18
2023-05-19T13:59:07.129Z,50.11
2023-05-19T14:01:34.091Z,48.64
2023-05-19T14:04:01.353Z,47.64
2023-05-19T14:06:28.466Z,46.04
2023-05-19T14:08:55.322Z,47.12
2023-05-19T14:11:22.253Z,47.19
2023-05-19T14:13:51.202Z,47.09
2023-05-19T14:16:19.621Z,45.37
2023-05-19T14:18:46.471Z,46.14
2023-05-19T14:21:13.490Z,46.37
2023-05-19T14:23:40.360Z,46.11
2023-05-19T14:26:07.418Z,46.63
2023-05-19T14:28:37.139Z,47.27
2023-05-19T14:31:07.082Z,46.87
2023-05-19T14:33:36.902Z,47.90
2023-05-19T14:36:07.759Z,48.52
2023-05-19T14:38:34.760Z,48.50
2023-05-19T14:41:01.802Z,47.61
2023-05-19T14:43:28.953Z,47.44
2023-05-19T14:45:56.983Z,47.29
2023-05-19T14:48:23.949Z,46.38
2023-05-19T14:50:50.949Z,44.63
2023-05-19T14:53:20.586Z,45.73
2023-05-19T14:55:50.573Z,45.37
2023-05-19T14:58:28.325Z,45.27
2023-05-19T15:00:58.402Z,45.21
2023-05-19T15:03:25.456Z,45.16
2023-05-19T15:05:52.443Z,45.05
2023-05-19T15:08:19.390Z,45.95
2023-05-19T15:10:49.744Z,47.59
2023-05-19T15:13:21.309Z,48.38
2023-05-19T15:15:48.677Z,49.18
2023-05-19T15:18:15.590Z,49.48
2023-05-19T15:20:44.101Z,50.50
2023-05-19T15:23:11.110Z,50.92
2023-05-19T15:25:38.225Z,51.13
2023-05-19T15:28:05.069Z,51.25
2023-05-19T15:30:31.971Z,51.42
2023-05-19T15:32:58.813Z,50.80
2023-05-19T15:35:25.716Z,51.54
2023-05-19T15:37:52.784Z,51.15
2023-05-19T15:40:19.716Z,50.94
2023-05-19T15:42:46.685Z,50.82
2023-05-19T15:45:13.777Z,50.17
2023-05-19T15:47:40.733Z,50.25
2023-05-19T15:50:08.325Z,51.43
2023-05-19T15:52:35.304Z,51.51
2023-05-19T15:55:04.981Z,52.96
2023-05-19T15:57:33.593Z,52.44
2023-05-19T16:00:00.626Z,52.04
2023-05-19T16:02:27.773Z,52.62
2023-05-19T16:04:54.879Z,52.53
2023-05-19T16:07:21.869Z,52.02
2023-05-19T16:09:48.694Z,52.18
2023-05-19T16:12:17.880Z,52.28
2023-05-19T16:14:44.873Z,52.90
2023-05-19T16:17:12.108Z,53.06
2023-05-19T16:19:39.022Z,53.38
2023-05-19T16:22:06.260Z,52.98
2023-05-19T16:24:45.267Z,52.77
2023-05-19T16:27:12.711Z,53.27
2023-05-19T16:29:39.637Z,53.56
2023-05-19T16:32:07.580Z,53.74
2023-05-19T16:37:21.942Z,54.72
2023-05-19T16:39:51.335Z,55.28
2023-05-19T16:42:33.049Z,54.97
2023-05-19T16:45:05.006Z,55.31
2023-05-19T16:47:40.953Z,55.72
2023-05-19T16:53:02.458Z,56.68
2023-05-19T16:55:31.055Z,57.43
2023-05-19T16:57:58.202Z,57.63
2023-05-19T17:00:30.204Z,57.36
2023-05-19T17:02:57.404Z,57.76
2023-05-19T17:05:25.936Z,56.81
2023-05-19T17:07:55.099Z,56.61
2023-05-19T17:10:31.022Z,55.91
2023-05-19T17:12:58.201Z,55.86
2023-05-19T17:18:15.403Z,55.27
2023-05-19T17:20:42.619Z,55.10
2023-05-19T17:23:12.706Z,55.15
2023-05-19T17:26:11.288Z,56.16
2023-05-19T17:28:38.236Z,57.52
2023-05-19T17:31:25.509Z,58.27
2023-05-19T17:33:58.435Z,58.81
2023-05-19T17:36:25.289Z,59.77
2023-05-19T17:38:52.589Z,59.91
2023-05-19T17:41:19.818Z,59.94
2023-05-19T17:43:46.826Z,60.11
2023-05-19T17:46:13.847Z,59.71
2023-05-19T17:48:42.747Z,59.89
2023-05-19T17:51:12.301Z,60.22
2023-05-19T17:53:51.811Z,60.49
2023-05-19T17:56:25.586Z,60.92
2023-05-19T17:58:54.806Z,60.98
2023-05-19T18:01:22.332Z,60.53
2023-05-19T18:03:49.995Z,61.10
2023-05-19T18:06:18.427Z,60.97
2023-05-19T18:08:49.263Z,60.49
2023-05-19T18:11:22.872Z,60.06
2023-05-19T18:13:50.053Z,60.29
2023-05-19T18:16:20.367Z,60.32
2023-05-19T18:18:50.879Z,60.74
2023-05-19T18:21:18.194Z,60.83
2023-05-19T18:23:49.187Z,60.91
2023-05-19T18:26:16.709Z,61.99
2023-05-19T18:28:52.582Z,62.23
2023-05-19T18:31:19.951Z,62.40
2023-05-19T18:33:53.213Z,61.56
2023-05-19T18:36:20.516Z,62.12
2023-05-19T18:38:49.248Z,62.37
2023-05-19T18:41:25.331Z,62.44
2023-05-19T18:43:52.314Z,62.26
2023-05-19T18:46:19.937Z,62.93
2023-05-19T18:48:49.316Z,63.45
2023-05-19T18:51:16.695Z,62.50
2023-05-19T18:53:43.544Z,62.21
2023-05-19T18:56:13.686Z,62.81
2023-05-19T18:58:40.656Z,63.23
2023-05-19T19:01:10.642Z,63.34
2023-05-19T19:03:37.817Z,63.34
2023-05-19T19:06:04.737Z,63.31
2023-05-19T19:08:34.325Z,63.59
2023-05-19T19:11:03.150Z,62.78
2023-05-19T19:13:30.106Z,63.67
2023-05-19T19:15:59.047Z,63.48
2023-05-19T19:18:26.186Z,64.91
2023-05-19T19:20:53.457Z,64.77
2023-05-19T19:23:20.488Z,65.47
2023-05-19T19:25:47.506Z,66.47
2023-05-19T19:28:14.598Z,66.73
2023-05-19T19:30:41.464Z,67.44
2023-05-19T19:33:08.930Z,67.34
2023-05-19T19:35:36.081Z,67.56
2023-05-19T19:38:03.051Z,67.86
2023-05-19T19:40:33.209Z,67.61
2023-05-19T19:43:00.432Z,67.35
2023-05-19T19:45:32.064Z,67.96
2023-05-19T19:48:02.237Z,67.76
2023-05-19T19:50:29.225Z,67.38
2023-05-19T19:52:56.470Z,67.26
2023-05-19T19:55:23.441Z,67.16
2023-05-19T19:57:53.296Z,67.25
2023-05-19T20:00:20.355Z,67.87
2023-05-19T20:03:03.610Z,68.06
2023-05-19T20:05:31.992Z,68.49
2023-05-19T20:08:01.058Z,67.83
2023-05-19T20:10:28.132Z,68.04
2023-05-19T20:12:55.199Z,67.71
2023-05-19T20:15:22.144Z,67.91
2023-05-19T20:17:49.148Z,68.15
2023-05-19T20:20:16.506Z,67.84
2023-05-19T20:22:43.349Z,67.73
2023-05-19T20:25:10.194Z,67.34
2023-05-19T20:27:37.134Z,67.19
2023-05-19T20:30:04.717Z,68.00
2023-05-19T20:32:31.778Z,68.34
2023-05-19T20:34:58.915Z,68.27
2023-05-19T20:37:25.861Z,68.29
2023-05-19T20:39:52.887Z,68.42
2023-05-19T20:42:23.013Z,68.46
2023-05-19T20:44:49.966Z,68.63
2023-05-19T20:47:17.014Z,68.60
2023-05-19T20:49:44.283Z,68.50
2023-05-19T20:52:11.228Z,67.91
2023-05-19T20:54:38.160Z,67.78
2023-05-19T20:57:05.296Z,67.92
2023-05-19T20:59:39.029Z,68.42
2023-05-19T21:02:06.212Z,68.65
2023-05-19T21:04:33.455Z,68.27
2023-05-19T21:07:00.899Z,68.21
2023-05-19T21:09:27.936Z,68.71
2023-05-19T21:11:54.930Z,69.23
2023-05-19T21:14:22.632Z,69.38
2023-05-19T21:16:50.342Z,69.85
2023-05-19T21:19:17.360Z,69.78
2023-05-19T21:21:44.271Z,70.00
2023-05-19T21:24:11.624Z,69.89
2023-05-19T21:26:39.377Z,69.89
2023-05-19T21:29:06.235Z,69.73
2023-05-19T21:31:33.592Z,69.32
2023-05-19T21:34:00.450Z,69.36
2023-05-19T21:36:27.631Z,69.20
2023-05-19T21:38:54.643Z,68.86
2023-05-19T21:41:21.555Z,69.04
2023-05-19T21:43:48.533Z,68.88
2023-05-19T21:46:15.522Z,68.52
2023-05-19T21:48:42.484Z,68.17
2023-05-19T21:51:09.337Z,68.21
2023-05-19T21:53:36.644Z,68.50
2023-05-19T21:56:03.773Z,68.40
2023-05-19T21:58:30.752Z,68.44
2023-05-19T22:00:59.692Z,67.90
2023-05-19T22:03:29.103Z,67.74
2023-05-19T22:05:58.496Z,67.85
2023-05-19T22:08:25.526Z,67.83
2023-05-19T22:10:53.260Z,67.17
2023-05-19T22:13:21.199Z,67.29
2023-05-19T22:15:48.621Z,67.24
2023-05-19T22:18:18.408Z,67.07
2023-05-19T22:20:47.720Z,66.93
2023-05-19T22:23:14.774Z,67.76
2023-05-19T22:25:41.618Z,67.12
2023-05-19T22:28:08.820Z,66.85
2023-05-19T22:30:37.148Z,67.30
2023-05-19T22:33:05.597Z,67.71
2023-05-19T22:35:32.492Z,67.93
2023-05-19T22:37:59.442Z,69.30
2023-05-19T22:40:26.301Z,69.27
2023-05-19T22:42:53.166Z,69.74
2023-05-19T22:45:20.090Z,70.18
2023-05-19T22:47:46.921Z,70.25
2023-05-19T22:50:13.886Z,71.28
2023-05-19T22:52:40.749Z,70.92
2023-05-19T22:55:08.097Z,71.30
2023-05-19T22:57:35.031Z,71.41
2023-05-19T23:00:01.976Z,70.90
2023-05-19T23:02:28.853Z,71.17
2023-05-19T23:04:55.746Z,70.96
2023-05-19T23:07:22.675Z,70.86
2023-05-19T23:09:49.728Z,71.12
2023-05-19T23:12:16.650Z,71.53
2023-05-19T23:14:43.508Z,71.13
2023-05-19T23:17:10.408Z,71.12
2023-05-19T23:19:37.380Z,70.78
2023-05-19T23:22:04.378Z,70.77
2023-05-19T23:24:31.232Z,70.87
2023-05-19T23:26:58.199Z,71.43
2023-05-19T23:29:25.263Z,72.01
2023-05-19T23:31:52.120Z,72.84
2023-05-19T23:34:19.098Z,73.04
2023-05-19T23:36:46.111Z,73.72
2023-05-19T23:39:12.963Z,74.21
2023-05-19T23:41:39.903Z,74.57
2023-05-19T23:44:08.370Z,73.99
2023-05-19T23:46:35.297Z,74.17
2023-05-19T23:49:02.270Z,74.49
2023-05-19T23:51:29.176Z,74.99
2023-05-19T23:53:56.527Z,75.61
2023-05-19T23:56:23.438Z,75.61
2023-05-19T23:58:50.227Z,76.30
